createdAt,value
2016-11-08T00:00:17.338Z,1027.68
2016-11-08T00:01:17.477Z,1027.66
2016-11-08T00:02:17.315Z,1027.65
2016-11-08T00:03:17.300Z,1027.61
2016-11-08T00:04:17.290Z,1027.63
2016-11-08T00:05:17.276Z,1027.62
2016-11-08T00:06:17.266Z,1027.61
2016-11-08T00:07:17.253Z,1027.6
2016-11-08T00:08:17.241Z,1027.58
2016-11-08T00:09:17.227Z,1027.59
2016-11-08T00:10:17.215Z,1027.59
2016-11-08T00:11:17.204Z,1027.58
2016-11-08T00:12:17.191Z,1027.57
2016-11-08T00:13:17.179Z,1027.61
2016-11-08T00:14:17.166Z,1027.61
2016-11-08T00:15:17.154Z,1027.6
2016-11-08T00:16:17.143Z,1027.61
2016-11-08T00:17:17.131Z,1027.62
2016-11-08T00:18:17.118Z,1027.59
2016-11-08T00:19:17.106Z,1027.57
2016-11-08T00:20:17.094Z,1027.55
2016-11-08T00:21:18.426Z,1027.53
2016-11-08T00:22:17.071Z,1027.51
2016-11-08T00:23:17.059Z,1027.49
2016-11-08T00:24:17.047Z,1027.52
2016-11-08T00:25:17.034Z,1027.54
2016-11-08T00:26:17.020Z,1027.56
2016-11-08T00:27:17.011Z,1027.65
2016-11-08T00:28:16.998Z,1027.65
2016-11-08T00:29:17.184Z,1027.67
2016-11-08T00:30:16.974Z,1027.67
2016-11-08T00:31:17.817Z,1027.71
2016-11-08T00:32:16.947Z,1027.73
2016-11-08T00:33:16.937Z,1027.74
2016-11-08T00:34:17.076Z,1027.81
2016-11-08T00:35:16.913Z,1027.83
2016-11-08T00:36:16.900Z,1027.86
2016-11-08T00:37:16.887Z,1027.92
2016-11-08T00:38:16.875Z,1027.95
2016-11-08T00:39:16.864Z,1027.95
2016-11-08T00:40:16.853Z,1028.04
2016-11-08T00:41:16.840Z,1028.09
2016-11-08T00:42:16.827Z,1028.11
2016-11-08T00:43:16.812Z,1028.12
2016-11-08T00:44:16.800Z,1028.17
2016-11-08T00:45:16.790Z,1028.21
2016-11-08T00:46:16.777Z,1028.22
2016-11-08T00:47:16.764Z,1028.26
2016-11-08T00:48:16.750Z,1028.31
2016-11-08T00:49:16.738Z,1028.3
2016-11-08T00:50:16.725Z,1028.3
2016-11-08T00:51:16.712Z,1028.31
2016-11-08T00:52:16.699Z,1028.33
2016-11-08T00:53:16.689Z,1028.31
2016-11-08T00:54:16.674Z,1028.31
2016-11-08T00:55:16.663Z,1028.36
2016-11-08T00:56:16.651Z,1028.33
2016-11-08T00:57:16.636Z,1028.36
2016-11-08T00:58:16.623Z,1028.41
2016-11-08T00:59:16.611Z,1028.38
2016-11-08T01:00:16.597Z,1028.39
2016-11-08T01:01:16.585Z,1028.47
2016-11-08T01:02:16.571Z,1028.48
2016-11-08T01:03:16.560Z,1028.51
2016-11-08T01:04:16.548Z,1028.52
2016-11-08T01:05:16.532Z,1028.59
2016-11-08T01:06:16.521Z,1028.63
2016-11-08T01:07:16.509Z,1028.67
2016-11-08T01:08:16.494Z,1028.62
2016-11-08T01:09:16.482Z,1028.61
2016-11-08T01:10:16.468Z,1028.58
2016-11-08T01:11:16.455Z,1028.54
2016-11-08T01:12:16.442Z,1028.53
2016-11-08T01:13:16.428Z,1028.47
2016-11-08T01:14:16.415Z,1028.42
2016-11-08T01:15:16.404Z,1028.44
2016-11-08T01:16:16.389Z,1028.45
2016-11-08T01:17:16.376Z,1028.44
2016-11-08T01:18:16.363Z,1028.4
2016-11-08T01:19:16.351Z,1028.39
2016-11-08T01:20:16.337Z,1028.36
2016-11-08T01:21:16.323Z,1028.28
2016-11-08T01:22:16.312Z,1028.18
2016-11-08T01:23:16.298Z,1028.15
2016-11-08T01:24:16.284Z,1028.09
2016-11-08T01:26:16.257Z,1027.96
2016-11-08T01:27:16.747Z,1027.92
2016-11-08T01:28:16.231Z,1027.86
2016-11-08T01:29:16.221Z,1027.81
2016-11-08T01:30:16.204Z,1027.78
2016-11-08T01:31:16.191Z,1027.74
2016-11-08T01:32:16.178Z,1027.73
2016-11-08T01:33:16.165Z,1027.74
2016-11-08T01:34:16.157Z,1027.66
2016-11-08T01:35:16.139Z,1027.6
2016-11-08T01:36:16.126Z,1027.61
2016-11-08T01:37:16.113Z,1027.57
2016-11-08T01:38:17.042Z,1027.54
2016-11-08T01:39:16.532Z,1027.54
2016-11-08T01:40:16.076Z,1027.53
2016-11-08T01:41:16.363Z,1027.48
2016-11-08T01:42:16.412Z,1027.53
2016-11-08T01:43:16.035Z,1027.5
2016-11-08T01:44:16.023Z,1027.48
2016-11-08T01:45:16.013Z,1027.49
2016-11-08T01:46:16.000Z,1027.47
2016-11-08T01:47:15.988Z,1027.48
2016-11-08T01:48:15.973Z,1027.49
2016-11-08T01:49:16.164Z,1027.52
2016-11-08T01:50:15.947Z,1027.52
2016-11-08T01:51:15.936Z,1027.51
2016-11-08T01:52:15.925Z,1027.52
2016-11-08T01:53:15.910Z,1027.48
2016-11-08T01:54:15.897Z,1027.45
2016-11-08T01:55:15.884Z,1027.53
2016-11-08T01:56:15.871Z,1027.47
2016-11-08T01:57:15.859Z,1027.49
2016-11-08T01:58:15.847Z,1027.47
2016-11-08T01:59:15.836Z,1027.51
2016-11-08T02:00:15.823Z,1027.52
2016-11-08T02:01:15.809Z,1027.53
2016-11-08T02:02:15.799Z,1027.53
2016-11-08T02:03:15.786Z,1027.56
2016-11-08T02:04:15.772Z,1027.53
2016-11-08T02:05:15.761Z,1027.54
2016-11-08T02:06:15.749Z,1027.56
2016-11-08T02:07:15.735Z,1027.53
2016-11-08T02:08:15.723Z,1027.52
2016-11-08T02:09:15.711Z,1027.54
2016-11-08T02:10:15.698Z,1027.53
2016-11-08T02:11:15.685Z,1027.5
2016-11-08T02:12:15.673Z,1027.49
2016-11-08T02:13:15.660Z,1027.49
2016-11-08T02:14:15.648Z,1027.51
2016-11-08T02:15:15.634Z,1027.47
2016-11-08T02:16:15.623Z,1027.47
2016-11-08T02:17:15.608Z,1027.42
2016-11-08T02:18:15.595Z,1027.36
2016-11-08T02:19:15.584Z,1027.35
2016-11-08T02:20:15.572Z,1027.33
2016-11-08T02:21:15.560Z,1027.34
2016-11-08T02:22:15.547Z,1027.31
2016-11-08T02:23:15.533Z,1027.3
2016-11-08T02:24:15.520Z,1027.29
2016-11-08T02:25:15.508Z,1027.27
2016-11-08T02:26:15.497Z,1027.32
2016-11-08T02:27:15.482Z,1027.29
2016-11-08T02:28:15.470Z,1027.26
2016-11-08T02:29:15.459Z,1027.24
2016-11-08T02:30:15.447Z,1027.28
2016-11-08T02:31:15.434Z,1027.23
2016-11-08T02:32:15.420Z,1027.25
2016-11-08T02:33:15.409Z,1027.22
2016-11-08T02:35:15.382Z,1027.2
2016-11-08T02:36:16.023Z,1027.23
2016-11-08T02:37:15.360Z,1027.26
2016-11-08T02:38:15.344Z,1027.25
2016-11-08T02:39:15.332Z,1027.27
2016-11-08T02:40:15.319Z,1027.29
2016-11-08T02:41:15.308Z,1027.28
2016-11-08T02:42:15.297Z,1027.28
2016-11-08T02:43:15.285Z,1027.29
2016-11-08T02:44:15.271Z,1027.29
2016-11-08T02:45:15.257Z,1027.26
2016-11-08T02:46:15.247Z,1027.27
2016-11-08T02:47:15.235Z,1027.27
2016-11-08T02:48:15.220Z,1027.31
2016-11-08T02:49:15.209Z,1027.27
2016-11-08T02:50:15.195Z,1027.26
2016-11-08T02:51:15.182Z,1027.24
2016-11-08T02:52:15.172Z,1027.23
2016-11-08T02:53:15.158Z,1027.27
2016-11-08T02:54:15.145Z,1027.27
2016-11-08T02:55:15.131Z,1027.26
2016-11-08T02:56:15.119Z,1027.27
2016-11-08T02:57:15.109Z,1027.27
2016-11-08T02:58:16.578Z,1027.26
2016-11-08T02:59:15.609Z,1027.24
2016-11-08T03:00:15.070Z,1027.24
2016-11-08T03:01:15.061Z,1027.17
2016-11-08T03:02:15.044Z,1027.15
2016-11-08T03:03:15.034Z,1027.14
2016-11-08T03:04:15.020Z,1027.12
2016-11-08T03:05:15.729Z,1027.12
2016-11-08T03:06:16.559Z,1027.16
2016-11-08T03:07:14.982Z,1027.16
2016-11-08T03:08:14.970Z,1027.16
2016-11-08T03:09:15.381Z,1027.19
2016-11-08T03:10:14.945Z,1027.2
2016-11-08T03:11:14.935Z,1027.23
2016-11-08T03:12:14.921Z,1027.21
2016-11-08T03:13:14.967Z,1027.23
2016-11-08T03:14:14.897Z,1027.24
2016-11-08T03:15:14.884Z,1027.25
2016-11-08T03:16:14.871Z,1027.24
2016-11-08T03:17:14.858Z,1027.32
2016-11-08T03:18:14.845Z,1027.32
2016-11-08T03:19:14.833Z,1027.35
2016-11-08T03:20:14.823Z,1027.32
2016-11-08T03:21:14.809Z,1027.34
2016-11-08T03:22:14.797Z,1027.32
2016-11-08T03:23:14.787Z,1027.32
2016-11-08T03:24:14.773Z,1027.35
2016-11-08T03:25:14.761Z,1027.31
2016-11-08T03:26:14.749Z,1027.32
2016-11-08T03:27:14.735Z,1027.28
2016-11-08T03:28:14.724Z,1027.28
2016-11-08T03:29:14.712Z,1027.27
2016-11-08T03:30:14.700Z,1027.23
2016-11-08T03:31:14.685Z,1027.27
2016-11-08T03:32:14.672Z,1027.25
2016-11-08T03:33:14.662Z,1027.27
2016-11-08T03:34:14.648Z,1027.3
2016-11-08T03:35:14.635Z,1027.3
2016-11-08T03:36:14.623Z,1027.32
2016-11-08T03:37:14.613Z,1027.31
2016-11-08T03:38:14.601Z,1027.34
2016-11-08T03:39:14.587Z,1027.32
2016-11-08T03:40:14.575Z,1027.3
2016-11-08T03:41:14.561Z,1027.32
2016-11-08T03:42:14.549Z,1027.35
2016-11-08T03:43:14.538Z,1027.3
2016-11-08T03:44:14.524Z,1027.31
2016-11-08T03:45:14.511Z,1027.35
2016-11-08T03:46:14.498Z,1027.33
2016-11-08T03:47:14.488Z,1027.3
2016-11-08T03:48:14.477Z,1027.29
2016-11-08T03:49:14.464Z,1027.25
2016-11-08T03:50:15.051Z,1027.19
2016-11-08T03:51:14.439Z,1027.15
2016-11-08T03:52:15.126Z,1027.12
2016-11-08T03:53:14.414Z,1027.08
2016-11-08T03:54:14.399Z,1027.05
2016-11-08T03:55:14.387Z,1027.08
2016-11-08T03:56:14.375Z,1027.07
2016-11-08T03:57:14.364Z,1027.07
2016-11-08T03:58:14.352Z,1027.07
2016-11-08T03:59:14.337Z,1027.06
2016-11-08T04:00:14.325Z,1027.07
2016-11-08T04:01:14.312Z,1027.08
2016-11-08T04:02:14.302Z,1027.08
2016-11-08T04:03:14.739Z,1027.09
2016-11-08T04:04:14.275Z,1027.06
2016-11-08T04:05:14.814Z,1027.08
2016-11-08T04:06:14.251Z,1027.01
2016-11-08T04:07:14.238Z,1027.06
2016-11-08T04:08:14.226Z,1027.02
2016-11-08T04:09:14.215Z,1027
2016-11-08T04:10:14.203Z,1027
2016-11-08T04:11:14.191Z,1026.99
2016-11-08T04:12:14.176Z,1026.98
2016-11-08T04:13:14.163Z,1027.01
2016-11-08T04:14:15.359Z,1027.01
2016-11-08T04:15:14.138Z,1027
2016-11-08T04:16:14.586Z,1027.02
2016-11-08T04:17:14.520Z,1027
2016-11-08T04:18:14.104Z,1027.01
2016-11-08T04:19:14.089Z,1027.01
2016-11-08T04:20:14.077Z,1026.97
2016-11-08T04:21:14.064Z,1026.97
2016-11-08T04:22:14.054Z,1026.91
2016-11-08T04:23:14.039Z,1026.88
2016-11-08T04:24:14.029Z,1026.89
2016-11-08T04:25:14.014Z,1026.86
2016-11-08T04:26:14.002Z,1026.94
2016-11-08T04:27:14.961Z,1026.97
2016-11-08T04:28:14.085Z,1027.03
2016-11-08T04:29:13.968Z,1027.03
2016-11-08T04:30:13.954Z,1027.04
2016-11-08T04:31:13.940Z,1027.04
2016-11-08T04:32:13.928Z,1027.07
2016-11-08T04:33:13.918Z,1027.04
2016-11-08T04:34:13.905Z,1027.02
2016-11-08T04:35:13.893Z,1027
2016-11-08T04:36:13.878Z,1026.97
2016-11-08T04:37:13.865Z,1026.93
2016-11-08T04:38:13.854Z,1026.97
2016-11-08T04:39:13.842Z,1026.94
2016-11-08T04:40:13.831Z,1026.93
2016-11-08T04:41:13.818Z,1026.92
2016-11-08T04:42:13.803Z,1026.9
2016-11-08T04:43:13.791Z,1026.85
2016-11-08T04:44:13.779Z,1026.81
2016-11-08T04:45:13.766Z,1026.79
2016-11-08T04:46:13.754Z,1026.75
2016-11-08T04:47:13.742Z,1026.75
2016-11-08T04:48:13.728Z,1026.78
2016-11-08T04:49:13.718Z,1026.82
2016-11-08T04:50:13.706Z,1026.84
2016-11-08T04:51:13.692Z,1026.81
2016-11-08T04:52:13.681Z,1026.85
2016-11-08T04:53:13.669Z,1026.86
2016-11-08T04:54:13.656Z,1026.83
2016-11-08T04:55:13.643Z,1026.88
2016-11-08T04:56:13.630Z,1026.83
2016-11-08T04:57:13.621Z,1026.81
2016-11-08T04:58:13.608Z,1026.81
2016-11-08T04:59:13.595Z,1026.82
2016-11-08T05:00:13.582Z,1026.84
2016-11-08T05:01:13.571Z,1026.85
2016-11-08T05:02:13.559Z,1026.86
2016-11-08T05:03:13.544Z,1026.83
2016-11-08T05:04:13.534Z,1026.83
2016-11-08T05:05:13.522Z,1026.8
2016-11-08T05:06:13.508Z,1026.83
2016-11-08T05:07:13.495Z,1026.82
2016-11-08T05:08:13.484Z,1026.8
2016-11-08T05:09:13.470Z,1026.75
2016-11-08T05:10:13.759Z,1026.7
2016-11-08T05:11:13.445Z,1026.66
2016-11-08T05:12:13.533Z,1026.65
2016-11-08T05:13:13.424Z,1026.62
2016-11-08T05:14:13.411Z,1026.63
2016-11-08T05:15:13.401Z,1026.63
2016-11-08T05:16:13.386Z,1026.63
2016-11-08T05:17:13.372Z,1026.68
2016-11-08T05:18:13.361Z,1026.73
2016-11-08T05:19:13.348Z,1026.73
2016-11-08T05:20:13.334Z,1026.7
2016-11-08T05:21:13.321Z,1026.67
2016-11-08T05:22:13.311Z,1026.67
2016-11-08T05:23:13.297Z,1026.55
2016-11-08T05:24:13.287Z,1026.57
2016-11-08T05:25:13.272Z,1026.6
2016-11-08T05:26:13.260Z,1026.59
2016-11-08T05:27:13.248Z,1026.59
2016-11-08T05:28:13.235Z,1026.61
2016-11-08T05:29:13.224Z,1026.62
2016-11-08T05:30:13.213Z,1026.63
2016-11-08T05:31:13.199Z,1026.59
2016-11-08T05:32:13.188Z,1026.59
2016-11-08T05:33:13.175Z,1026.57
2016-11-08T05:34:13.163Z,1026.54
2016-11-08T05:35:13.152Z,1026.52
2016-11-08T05:36:13.139Z,1026.47
2016-11-08T05:37:13.125Z,1026.49
2016-11-08T05:38:13.115Z,1026.45
2016-11-08T05:39:13.104Z,1026.45
2016-11-08T05:40:13.092Z,1026.47
2016-11-08T05:41:13.080Z,1026.45
2016-11-08T05:42:14.649Z,1026.49
2016-11-08T05:43:14.348Z,1026.51
2016-11-08T05:44:13.044Z,1026.51
2016-11-08T05:45:14.173Z,1026.5
2016-11-08T05:46:13.017Z,1026.45
2016-11-08T05:47:13.003Z,1026.46
2016-11-08T05:48:12.993Z,1026.48
2016-11-08T05:49:12.979Z,1026.44
2016-11-08T05:50:12.967Z,1026.49
2016-11-08T05:51:12.956Z,1026.51
2016-11-08T05:52:12.942Z,1026.5
2016-11-08T05:53:12.930Z,1026.5
2016-11-08T05:54:12.917Z,1026.52
2016-11-08T05:55:12.905Z,1026.61
2016-11-08T05:56:12.893Z,1026.58
2016-11-08T05:57:12.882Z,1026.61
2016-11-08T05:58:12.870Z,1026.6
2016-11-08T05:59:12.856Z,1026.65
2016-11-08T06:00:12.844Z,1026.65
2016-11-08T06:01:12.831Z,1026.57
2016-11-08T06:02:12.820Z,1026.55
2016-11-08T06:03:12.807Z,1026.54
2016-11-08T06:04:12.797Z,1026.53
2016-11-08T06:05:12.782Z,1026.56
2016-11-08T06:06:12.772Z,1026.57
2016-11-08T06:07:12.758Z,1026.55
2016-11-08T06:08:12.746Z,1026.53
2016-11-08T06:09:12.734Z,1026.57
2016-11-08T06:10:12.723Z,1026.5
2016-11-08T06:11:12.711Z,1026.45
2016-11-08T06:12:12.698Z,1026.44
2016-11-08T06:13:12.686Z,1026.38
2016-11-08T06:14:12.675Z,1026.38
2016-11-08T06:15:12.661Z,1026.38
2016-11-08T06:16:12.648Z,1026.38
2016-11-08T06:17:12.638Z,1026.34
2016-11-08T06:18:12.626Z,1026.32
2016-11-08T06:19:12.612Z,1026.26
2016-11-08T06:20:12.599Z,1026.27
2016-11-08T06:21:12.590Z,1026.3
2016-11-08T06:22:12.576Z,1026.33
2016-11-08T06:23:12.564Z,1026.35
2016-11-08T06:24:12.552Z,1026.34
2016-11-08T06:25:12.541Z,1026.31
2016-11-08T06:26:12.529Z,1026.34
2016-11-08T06:27:13.217Z,1026.32
2016-11-08T06:28:13.371Z,1026.31
2016-11-08T06:29:12.492Z,1026.31
2016-11-08T06:30:12.482Z,1026.34
2016-11-08T06:31:12.469Z,1026.31
2016-11-08T06:32:12.459Z,1026.25
2016-11-08T06:33:12.448Z,1026.28
2016-11-08T06:34:12.434Z,1026.19
2016-11-08T06:35:12.423Z,1026.18
2016-11-08T06:36:13.262Z,1026.21
2016-11-08T06:37:12.400Z,1026.14
2016-11-08T06:38:12.436Z,1026.13
2016-11-08T06:39:12.373Z,1026.13
2016-11-08T06:40:12.912Z,1026.13
2016-11-08T06:41:12.349Z,1026.14
2016-11-08T06:42:12.341Z,1026.14
2016-11-08T06:43:12.328Z,1026.15
2016-11-08T06:44:12.317Z,1026.17
2016-11-08T06:45:12.302Z,1026.13
2016-11-08T06:46:12.293Z,1026.12
2016-11-08T06:47:12.282Z,1026.1
2016-11-08T06:48:12.268Z,1026.14
2016-11-08T06:49:12.257Z,1026.11
2016-11-08T06:50:12.244Z,1026.2
2016-11-08T06:51:12.235Z,1026.15
2016-11-08T06:52:12.220Z,1026.12
2016-11-08T06:53:12.211Z,1026.11
2016-11-08T06:54:12.201Z,1026.17
2016-11-08T06:55:12.186Z,1026.18
2016-11-08T06:56:12.173Z,1026.19
2016-11-08T06:57:12.164Z,1026.18
2016-11-08T06:58:12.151Z,1026.17
2016-11-08T06:59:12.141Z,1026.12
2016-11-08T07:00:12.741Z,1026.12
2016-11-08T07:01:13.643Z,1026.06
2016-11-08T07:02:12.106Z,1026.02
2016-11-08T07:03:12.092Z,1026
2016-11-08T07:04:12.081Z,1025.99
2016-11-08T07:05:12.069Z,1025.95
2016-11-08T07:06:12.058Z,1025.89
2016-11-08T07:07:12.048Z,1025.93
2016-11-08T07:08:12.036Z,1025.97
2016-11-08T07:09:12.024Z,1026.01
2016-11-08T07:10:12.014Z,1026.03
2016-11-08T07:11:12.003Z,1025.99
2016-11-08T07:12:11.991Z,1025.98
2016-11-08T07:13:11.976Z,1025.99
2016-11-08T07:14:11.964Z,1025.99
2016-11-08T07:15:11.956Z,1025.96
2016-11-08T07:16:11.944Z,1025.97
2016-11-08T07:17:11.930Z,1025.9
2016-11-08T07:18:11.920Z,1025.92
2016-11-08T07:19:11.907Z,1025.92
2016-11-08T07:20:11.897Z,1025.95
2016-11-08T07:21:11.886Z,1025.93
2016-11-08T07:22:11.872Z,1025.93
2016-11-08T07:23:11.861Z,1025.81
2016-11-08T07:24:11.851Z,1025.74
2016-11-08T07:25:11.838Z,1025.69
2016-11-08T07:26:11.828Z,1025.69
2016-11-08T07:27:11.815Z,1025.67
2016-11-08T07:28:11.806Z,1025.65
2016-11-08T07:29:11.794Z,1025.62
2016-11-08T07:30:11.781Z,1025.61
2016-11-08T07:31:11.772Z,1025.6
2016-11-08T07:32:11.759Z,1025.52
2016-11-08T07:33:11.746Z,1025.49
2016-11-08T07:34:11.735Z,1025.46
2016-11-08T07:35:11.727Z,1025.42
2016-11-08T07:36:11.715Z,1025.39
2016-11-08T07:37:11.703Z,1025.3
2016-11-08T07:38:11.691Z,1025.3
2016-11-08T07:39:11.682Z,1025.28
2016-11-08T07:40:11.668Z,1025.25
2016-11-08T07:41:11.659Z,1025.22
2016-11-08T07:42:11.646Z,1025.22
2016-11-08T07:43:11.635Z,1025.23
2016-11-08T07:44:11.624Z,1025.19
2016-11-08T07:45:11.765Z,1025.18
2016-11-08T07:46:14.054Z,1025.17
2016-11-08T07:47:11.592Z,1025.2
2016-11-08T07:48:11.580Z,1025.18
2016-11-08T07:49:11.571Z,1025.19
2016-11-08T07:50:11.709Z,1025.22
2016-11-08T07:51:11.547Z,1025.25
2016-11-08T07:52:11.538Z,1025.19
2016-11-08T07:53:11.525Z,1025.13
2016-11-08T07:54:11.517Z,1025.1
2016-11-08T07:55:11.505Z,1025.09
2016-11-08T07:56:11.495Z,1025.06
2016-11-08T07:57:11.483Z,1025.04
2016-11-08T07:58:11.821Z,1025.03
2016-11-08T07:59:11.467Z,1024.94
2016-11-08T08:00:11.802Z,1024.98
2016-11-08T08:01:11.442Z,1024.98
2016-11-08T08:02:11.461Z,1024.97
2016-11-08T08:03:11.418Z,1025.01
2016-11-08T08:04:11.407Z,1024.98
2016-11-08T08:05:11.399Z,1024.93
2016-11-08T08:06:11.386Z,1024.92
2016-11-08T08:07:11.376Z,1024.86
2016-11-08T08:08:11.367Z,1024.88
2016-11-08T08:10:11.344Z,1024.85
2016-11-08T08:11:12.449Z,1024.87
2016-11-08T08:12:12.327Z,1024.87
2016-11-08T08:13:11.312Z,1024.87
2016-11-08T08:14:11.302Z,1024.78
2016-11-08T08:15:11.292Z,1024.76
2016-11-08T08:16:11.282Z,1024.76
2016-11-08T08:17:11.272Z,1024.76
2016-11-08T08:18:11.454Z,1024.77
2016-11-08T08:19:11.250Z,1024.79
2016-11-08T08:20:12.020Z,1024.86
2016-11-08T08:21:12.457Z,1024.82
2016-11-08T08:22:11.220Z,1024.77
2016-11-08T08:23:11.212Z,1024.83
2016-11-08T08:24:11.198Z,1024.9
2016-11-08T08:25:11.189Z,1024.92
2016-11-08T08:26:11.378Z,1024.93
2016-11-08T08:27:11.165Z,1024.96
2016-11-08T08:28:11.156Z,1024.97
2016-11-08T08:29:11.144Z,1024.98
2016-11-08T08:30:11.136Z,1024.95
2016-11-08T08:31:11.125Z,1024.92
2016-11-08T08:32:11.344Z,1024.88
2016-11-08T08:33:11.105Z,1024.8
2016-11-08T08:34:11.095Z,1024.74
2016-11-08T08:35:11.081Z,1024.68
2016-11-08T08:36:11.071Z,1024.65
2016-11-08T08:37:11.061Z,1024.63
2016-11-08T08:38:11.052Z,1024.57
2016-11-08T08:39:11.042Z,1024.49
2016-11-08T08:40:11.031Z,1024.49
2016-11-08T08:41:11.023Z,1024.4
2016-11-08T08:42:11.009Z,1024.38
2016-11-08T08:43:10.998Z,1024.33
2016-11-08T08:44:10.989Z,1024.3
2016-11-08T08:45:10.978Z,1024.26
2016-11-08T08:46:10.968Z,1024.2
2016-11-08T08:47:10.956Z,1024.18
2016-11-08T08:48:10.950Z,1024.13
2016-11-08T08:49:10.943Z,1024.07
2016-11-08T08:50:10.925Z,1024.08
2016-11-08T08:51:10.916Z,1024.05
2016-11-08T08:52:10.908Z,1024.03
2016-11-08T08:53:10.897Z,1023.96
2016-11-08T08:54:10.886Z,1023.93
2016-11-08T08:55:10.880Z,1023.88
2016-11-08T08:56:10.871Z,1023.86
2016-11-08T08:57:10.858Z,1023.81
2016-11-08T08:58:10.849Z,1023.82
2016-11-08T08:59:10.843Z,1023.82
2016-11-08T09:00:10.833Z,1023.78
2016-11-08T09:01:10.822Z,1023.74
2016-11-08T09:02:10.813Z,1023.64
2016-11-08T09:03:10.805Z,1023.61
2016-11-08T09:04:11.344Z,1023.59
2016-11-08T09:05:10.785Z,1023.63
2016-11-08T09:06:11.526Z,1023.62
2016-11-08T09:07:10.766Z,1023.68
2016-11-08T09:08:10.754Z,1023.67
2016-11-08T09:09:10.747Z,1023.71
2016-11-08T09:10:10.737Z,1023.62
2016-11-08T09:11:10.725Z,1023.55
2016-11-08T09:12:10.715Z,1023.55
2016-11-08T09:13:10.708Z,1023.48
2016-11-08T09:14:10.698Z,1023.48
2016-11-08T09:15:10.688Z,1023.42
2016-11-08T09:16:10.678Z,1023.4
2016-11-08T09:17:10.670Z,1023.43
2016-11-08T09:18:10.659Z,1023.38
2016-11-08T09:19:10.650Z,1023.36
2016-11-08T09:20:10.642Z,1023.29
2016-11-08T09:21:10.631Z,1023.22
2016-11-08T09:22:10.622Z,1023.19
2016-11-08T09:23:10.614Z,1022.95
2016-11-08T09:24:10.603Z,1022.93
2016-11-08T09:25:10.599Z,1022.92
2016-11-08T09:26:10.586Z,1022.89
2016-11-08T09:27:10.575Z,1022.96
2016-11-08T09:28:10.567Z,1023.02
2016-11-08T09:29:10.558Z,1023.12
2016-11-08T09:30:10.548Z,1023.12
2016-11-08T09:31:10.540Z,1023.19
2016-11-08T09:32:10.532Z,1023.13
2016-11-08T09:33:10.522Z,1022.96
2016-11-08T09:34:10.512Z,1022.86
2016-11-08T09:35:10.505Z,1022.84
2016-11-08T09:36:10.496Z,1022.85
2016-11-08T09:37:10.486Z,1022.87
2016-11-08T09:38:10.477Z,1022.93
2016-11-08T09:39:10.469Z,1022.95
2016-11-08T09:40:10.461Z,1022.89
2016-11-08T09:41:10.452Z,1022.83
2016-11-08T09:42:10.445Z,1022.71
2016-11-08T09:43:10.434Z,1022.58
2016-11-08T09:44:10.428Z,1022.45
2016-11-08T09:45:10.417Z,1022.35
2016-11-08T09:46:10.408Z,1022.37
2016-11-08T09:47:10.399Z,1022.42
2016-11-08T09:48:10.397Z,1022.31
2016-11-08T09:49:10.381Z,1022.3
2016-11-08T09:50:10.374Z,1022.27
2016-11-08T09:51:10.364Z,1022.26
2016-11-08T09:52:10.355Z,1022.28
2016-11-08T09:53:10.348Z,1022.31
2016-11-08T09:54:10.339Z,1022.34
2016-11-08T09:55:10.331Z,1022.39
2016-11-08T09:56:10.323Z,1022.43
2016-11-08T09:57:10.314Z,1022.53
2016-11-08T09:58:10.306Z,1022.53
2016-11-08T09:59:10.298Z,1022.54
2016-11-08T10:00:10.289Z,1022.53
2016-11-08T10:01:10.280Z,1022.54
2016-11-08T10:02:10.272Z,1022.58
2016-11-08T10:03:10.264Z,1022.59
2016-11-08T10:04:10.255Z,1022.64
2016-11-08T10:05:10.248Z,1022.58
2016-11-08T10:06:10.239Z,1022.47
2016-11-08T10:07:10.229Z,1022.42
2016-11-08T10:08:10.222Z,1022.34
2016-11-08T10:09:10.213Z,1022.3
2016-11-08T10:10:10.205Z,1022.27
2016-11-08T10:11:10.197Z,1022.26
2016-11-08T10:12:10.188Z,1022.18
2016-11-08T10:13:10.179Z,1022.14
2016-11-08T10:14:10.172Z,1022.11
2016-11-08T10:15:10.163Z,1022.07
2016-11-08T10:16:10.155Z,1021.92
2016-11-08T10:17:10.145Z,1021.89
2016-11-08T10:18:10.137Z,1021.92
2016-11-08T10:19:10.131Z,1022.02
2016-11-08T10:20:10.123Z,1022.06
2016-11-08T10:21:10.113Z,1022.12
2016-11-08T10:22:10.107Z,1022.17
2016-11-08T10:23:10.097Z,1022.21
2016-11-08T10:24:11.038Z,1022.16
2016-11-08T10:25:10.081Z,1022.2
2016-11-08T10:26:10.073Z,1022.29
2016-11-08T10:27:10.064Z,1022.35
2016-11-08T10:28:10.055Z,1022.44
2016-11-08T10:29:10.049Z,1022.46
2016-11-08T10:30:10.039Z,1022.53
2016-11-08T10:32:10.022Z,1022.68
2016-11-08T10:33:10.014Z,1022.65
2016-11-08T10:34:10.006Z,1022.65
2016-11-08T10:35:09.999Z,1022.59
2016-11-08T10:36:09.990Z,1022.6
2016-11-08T10:37:09.982Z,1022.55
2016-11-08T10:38:09.973Z,1022.53
2016-11-08T10:39:09.964Z,1022.44
2016-11-08T10:40:09.956Z,1022.34
2016-11-08T10:41:09.948Z,1022.26
2016-11-08T10:42:09.939Z,1022.16
2016-11-08T10:43:09.931Z,1022.11
2016-11-08T10:44:09.922Z,1022.02
2016-11-08T10:45:09.913Z,1022
2016-11-08T10:46:11.069Z,1022.01
2016-11-08T10:47:10.915Z,1022
2016-11-08T10:48:09.889Z,1022.04
2016-11-08T10:49:09.881Z,1022.07
2016-11-08T10:50:09.873Z,1021.97
2016-11-08T10:51:09.863Z,1021.92
2016-11-08T10:52:09.856Z,1021.81
2016-11-08T10:53:09.850Z,1021.72
2016-11-08T10:54:09.840Z,1021.59
2016-11-08T10:55:10.180Z,1021.48
2016-11-08T10:56:10.761Z,1021.31
2016-11-08T10:57:09.815Z,1021.24
2016-11-08T10:58:09.808Z,1021.19
2016-11-08T10:59:09.801Z,1021.19
2016-11-08T11:00:10.500Z,1021.18
2016-11-08T11:01:10.106Z,1021.1
2016-11-08T11:02:09.779Z,1021.11
2016-11-08T11:03:09.770Z,1021.13
2016-11-08T11:04:09.763Z,1021.14
2016-11-08T11:05:09.756Z,1021.13
2016-11-08T11:06:09.749Z,1021.19
2016-11-08T11:07:09.742Z,1021.24
2016-11-08T11:08:09.736Z,1021.25
2016-11-08T11:09:09.727Z,1021.26
2016-11-08T11:10:09.720Z,1021.24
2016-11-08T11:11:09.713Z,1021.21
2016-11-08T11:12:09.705Z,1021.22
2016-11-08T11:13:09.698Z,1021.24
2016-11-08T11:14:09.692Z,1021.37
2016-11-08T11:15:09.685Z,1021.46
2016-11-08T11:16:09.678Z,1021.48
2016-11-08T11:17:09.672Z,1021.57
2016-11-08T11:18:09.665Z,1021.52
2016-11-08T11:19:09.659Z,1021.51
2016-11-08T11:20:09.652Z,1021.55
2016-11-08T11:21:09.643Z,1021.61
2016-11-08T11:22:09.636Z,1021.65
2016-11-08T11:23:09.629Z,1021.73
2016-11-08T11:24:09.621Z,1021.76
2016-11-08T11:25:09.614Z,1021.81
2016-11-08T11:26:09.606Z,1021.89
2016-11-08T11:27:09.599Z,1021.92
2016-11-08T11:28:09.592Z,1021.95
2016-11-08T11:29:09.585Z,1021.99
2016-11-08T11:30:09.578Z,1022.01
2016-11-08T11:31:09.569Z,1021.99
2016-11-08T11:32:09.561Z,1021.99
2016-11-08T11:33:09.554Z,1022.05
2016-11-08T11:34:09.563Z,1022.06
2016-11-08T11:35:09.539Z,1022.07
2016-11-08T11:36:09.532Z,1022.06
2016-11-08T11:37:09.524Z,1022.05
2016-11-08T11:38:09.515Z,1022.09
2016-11-08T11:39:09.509Z,1022.09
2016-11-08T11:41:09.492Z,1022.14
2016-11-08T11:42:09.734Z,1022.2
2016-11-08T11:43:09.476Z,1022.23
2016-11-08T11:45:09.460Z,1022.31
2016-11-08T11:46:09.452Z,1022.39
2016-11-08T11:47:09.445Z,1022.46
2016-11-08T11:48:09.438Z,1022.54
2016-11-08T11:49:09.430Z,1022.6
2016-11-08T11:50:09.670Z,1022.64
2016-11-08T11:51:09.415Z,1022.61
2016-11-08T11:52:09.403Z,1022.64
2016-11-08T11:53:09.397Z,1022.52
2016-11-08T11:54:09.389Z,1022.38
2016-11-08T11:55:09.381Z,1022.37
2016-11-08T11:56:09.372Z,1022.33
2016-11-08T11:57:09.363Z,1022.29
2016-11-08T11:58:09.355Z,1022.31
2016-11-08T11:59:09.352Z,1022.27
2016-11-08T12:00:09.338Z,1022.28
2016-11-08T12:01:09.330Z,1022.23
2016-11-08T12:02:09.322Z,1022.18
2016-11-08T12:03:09.313Z,1022.2
2016-11-08T12:04:09.305Z,1022.23
2016-11-08T12:05:09.297Z,1022.2
2016-11-08T12:06:10.627Z,1022.19
2016-11-08T12:07:09.908Z,1022.16
2016-11-08T12:08:09.273Z,1022.13
2016-11-08T12:09:09.265Z,1022.1
2016-11-08T12:10:09.258Z,1022.04
2016-11-08T12:11:09.250Z,1022.02
2016-11-08T12:12:09.242Z,1021.99
2016-11-08T12:13:09.232Z,1021.94
2016-11-08T12:14:09.224Z,1021.92